Time;durP1;ratioP1;P1;durP2;ratioP2;P2;SDS_P1;SDS_P2;PMS_P1;PMS_P2;Temp;Humidity;BMP_temperature;BMP_pressure;BME280_temperature;BME280_humidity;BME280_pressure;Samples;Min_cycle;Max_cycle;Signal;HPM_P1;HPM_P2
2022/09/08 00:02:10;;;;;;;3.40;2.60;;;21.70;99.90;;;;;;5035641;28;20167;-69
2022/09/08 00:04:36;;;;;;;5.03;2.70;;;21.70;99.90;;;;;;5035981;28;20209;-69
2022/09/08 00:07:02;;;;;;;3.50;2.57;;;21.70;99.90;;;;;;5035461;28;20215;-69
2022/09/08 00:09:32;;;;;;;3.53;2.80;;;21.70;99.90;;;;;;5035584;28;20191;-69
2022/09/08 00:11:58;;;;;;;3.97;2.90;;;21.70;99.90;;;;;;5036072;28;20250;-69
2022/09/08 00:14:24;;;;;;;3.00;2.80;;;21.70;99.90;;;;;;5035541;28;20467;-69
2022/09/08 00:16:50;;;;;;;4.47;2.87;;;21.70;99.90;;;;;;5035651;28;20435;-69
2022/09/08 00:19:16;;;;;;;5.63;2.93;;;21.80;99.90;;;;;;5035521;28;20409;-69
2022/09/08 00:21:42;;;;;;;5.33;3.30;;;21.80;99.90;;;;;;5035862;28;20406;-69
2022/09/08 00:24:07;;;;;;;3.97;3.20;;;21.80;99.90;;;;;;5035525;28;20291;-69
2022/09/08 00:26:33;;;;;;;7.53;2.73;;;21.80;99.90;;;;;;5035703;28;20529;-69
2022/09/08 00:28:59;;;;;;;4.77;3.30;;;21.60;99.90;;;;;;5035592;28;20210;-69
2022/09/08 00:31:25;;;;;;;4.30;3.30;;;21.50;99.90;;;;;;5035332;28;20507;-69
2022/09/08 00:33:50;;;;;;;5.23;3.10;;;21.40;99.90;;;;;;5035116;28;20207;-69
2022/09/08 00:36:17;;;;;;;3.80;3.10;;;21.30;99.90;;;;;;5033382;28;20187;-69
2022/09/08 00:38:50;;;;;;;4.67;3.50;;;21.30;99.90;;;;;;5011065;28;20172;-69
2022/09/08 00:41:16;;;;;;;4.20;2.80;;;21.40;99.90;;;;;;5035410;28;20394;-69
2022/09/08 00:43:44;;;;;;;3.67;3.37;;;21.50;99.90;;;;;;5034886;28;20413;-69
2022/09/08 00:46:12;;;;;;;8.90;3.50;;;21.60;99.90;;;;;;5035128;28;20434;-69
2022/09/08 00:48:44;;;;;;;4.60;3.37;;;21.60;99.90;;;;;;5035165;28;20410;-70
2022/09/08 00:51:11;;;;;;;6.07;3.20;;;21.70;99.90;;;;;;5035122;28;20405;-69
2022/09/08 00:53:40;;;;;;;4.37;3.97;;;21.70;99.90;;;;;;5021796;28;20959;-69
2022/09/08 00:56:06;;;;;;;3.67;3.03;;;21.40;99.90;;;;;;5014795;28;20441;-69
2022/09/08 00:58:39;;;;;;;4.37;3.97;;;21.20;99.90;;;;;;5014551;28;20411;-69
2022/09/08 01:01:06;;;;;;;3.80;3.47;;;21.20;99.90;;;;;;5014885;28;20438;-69
2022/09/08 01:03:32;;;;;;;4.20;3.27;;;21.30;99.90;;;;;;5014817;28;20410;-68
2022/09/08 01:12:43;;;;;;;4.93;3.23;;;21.30;99.90;;;;;;5014827;28;20435;-69
2022/09/08 01:15:02;;;;;;;4.30;3.90;;;21.30;99.90;;;;;;5034225;28;20480;-69
2022/09/08 01:17:30;;;;;;;4.30;3.90;;;21.30;99.90;;;;;;5034481;28;20406;-69
2022/09/08 01:19:58;;;;;;;4.73;3.80;;;21.20;99.90;;;;;;5034269;28;20778;-69
2022/09/08 01:23:05;;;;;;;10.80;3.80;;;21.20;99.90;;;;;;5036050;28;20413;-69
2022/09/08 01:25:45;;;;;;;7.57;4.03;;;21.20;99.90;;;;;;5020184;28;20803;-69
2022/09/08 01:28:19;;;;;;;4.00;3.30;;;21.10;99.90;;;;;;5034518;28;20387;-67
2022/09/08 01:30:46;;;;;;;6.37;4.40;;;21.00;99.90;;;;;;5034354;28;20391;-69
2022/09/08 01:33:13;;;;;;;4.20;3.80;;;21.00;99.90;;;;;;5034242;28;20887;-69
2022/09/08 01:35:39;;;;;;;4.53;3.90;;;20.90;99.90;;;;;;5033799;28;20458;-69
2022/09/08 01:38:07;;;;;;;4.30;3.17;;;20.90;99.90;;;;;;5034155;28;20413;-69
2022/09/08 01:40:32;;;;;;;5.10;4.00;;;20.90;99.90;;;;;;5033482;28;20907;-69
2022/09/08 01:42:58;;;;;;;4.30;3.90;;;20.90;99.90;;;;;;5034117;28;20403;-69
2022/09/08 01:45:24;;;;;;;4.07;3.67;;;20.90;99.90;;;;;;5033769;28;20194;-69
2022/09/08 01:47:50;;;;;;;4.47;4.07;;;20.90;99.90;;;;;;5033774;28;20197;-69
2022/09/08 01:50:16;;;;;;;3.50;3.20;;;20.90;99.90;;;;;;5033937;28;20179;-69
2022/09/08 01:52:42;;;;;;;4.77;4.27;;;20.80;99.90;;;;;;5034222;28;20410;-69
2022/09/08 01:55:07;;;;;;;4.80;4.17;;;20.80;99.90;;;;;;5033220;28;20210;-69
2022/09/08 01:57:33;;;;;;;4.63;3.87;;;20.70;99.90;;;;;;5033619;28;20541;-69
2022/09/08 01:59:58;;;;;;;4.37;4.07;;;20.70;99.90;;;;;;5033593;28;20171;-69
2022/09/08 02:02:24;;;;;;;4.30;3.90;;;20.60;99.90;;;;;;5033586;28;20170;-69
2022/09/08 02:04:49;;;;;;;4.70;3.77;;;20.60;99.90;;;;;;5033562;28;20258;-69
2022/09/08 02:07:15;;;;;;;4.17;3.87;;;20.40;99.90;;;;;;5033527;28;20183;-69
2022/09/08 02:09:41;;;;;;;4.87;3.80;;;20.40;99.90;;;;;;5032048;28;20203;-69
2022/09/08 02:12:06;;;;;;;3.93;3.63;;;20.50;99.90;;;;;;5033507;28;20171;-69
2022/09/08 02:14:32;;;;;;;5.57;3.97;;;20.50;99.90;;;;;;5033330;28;20286;-69
2022/09/08 02:16:57;;;;;;;3.73;3.23;;;20.50;99.90;;;;;;5033445;28;20548;-68
2022/09/08 02:19:23;;;;;;;3.93;3.50;;;20.60;99.90;;;;;;5033479;28;20198;-69
2022/09/08 02:21:49;;;;;;;3.07;2.87;;;20.70;99.90;;;;;;5033506;28;20589;-69
2022/09/08 02:24:14;;;;;;;6.00;2.70;;;20.70;99.90;;;;;;5033036;28;20179;-69
2022/09/08 02:26:40;;;;;;;5.47;2.67;;;20.70;99.90;;;;;;5033164;28;20292;-69
2022/09/08 02:29:08;;;;;;;3.60;2.80;;;20.50;99.90;;;;;;5033563;28;20167;-69
2022/09/08 02:31:34;;;;;;;3.97;2.43;;;20.50;99.90;;;;;;5033166;28;20402;-69
2022/09/08 02:33:59;;;;;;;2.73;2.30;;;20.40;99.90;;;;;;5033466;28;20860;-69
2022/09/08 02:36:25;;;;;;;2.73;2.53;;;20.20;99.90;;;;;;5033230;28;20222;-69
2022/09/08 02:38:52;;;;;;;3.40;3.07;;;20.00;99.90;;;;;;5033133;28;20182;-68
2022/09/08 02:41:19;;;;;;;4.53;2.30;;;20.10;99.90;;;;;;5032998;28;20707;-69
2022/09/08 02:43:44;;;;;;;2.30;2.00;;;20.20;99.90;;;;;;5033071;28;20468;-69
2022/09/08 02:46:10;;;;;;;3.63;2.20;;;20.20;99.90;;;;;;5033316;28;20537;-69
2022/09/08 02:48:36;;;;;;;3.50;2.53;;;20.20;99.90;;;;;;5033548;28;20592;-69
2022/09/08 02:51:04;;;;;;;3.53;2.90;;;20.20;99.90;;;;;;5033780;28;20426;-69
2022/09/08 02:53:30;;;;;;;2.93;2.30;;;20.30;99.90;;;;;;5033340;28;20167;-69
2022/09/08 02:55:57;;;;;;;3.60;2.63;;;20.30;99.90;;;;;;5033075;28;20468;-69
2022/09/08 02:58:23;;;;;;;4.13;2.33;;;20.30;99.90;;;;;;5033209;28;20455;-69
2022/09/08 03:00:49;;;;;;;3.30;2.00;;;20.50;99.90;;;;;;5033127;28;20410;-69
2022/09/08 03:03:15;;;;;;;2.40;2.10;;;20.50;99.90;;;;;;5014681;28;20179;-69
2022/09/08 03:05:40;;;;;;;2.30;2.07;;;20.50;99.90;;;;;;5013087;28;20286;-69
2022/09/08 03:08:08;;;;;;;2.50;2.30;;;20.50;99.90;;;;;;5013198;28;20447;-69
2022/09/08 03:10:34;;;;;;;2.30;2.03;;;20.60;99.90;;;;;;5025620;28;20202;-69
2022/09/08 03:13:00;;;;;;;2.37;2.17;;;20.60;99.90;;;;;;5033222;28;20425;-68
2022/09/08 03:15:28;;;;;;;3.50;2.10;;;20.20;99.90;;;;;;5032741;28;20454;-69
2022/09/08 03:17:54;;;;;;;1.73;1.60;;;20.00;99.90;;;;;;5033155;28;20454;-69
2022/09/08 03:20:20;;;;;;;2.20;2.00;;;20.10;99.90;;;;;;5033859;28;20422;-69
2022/09/08 03:22:46;;;;;;;3.67;1.90;;;20.20;99.90;;;;;;5036824;28;20919;-69
2022/09/08 03:25:12;;;;;;;2.23;1.60;;;20.20;99.90;;;;;;5036194;28;20523;-69
2022/09/08 03:27:39;;;;;;;1.30;1.20;;;20.20;99.90;;;;;;5036661;28;20305;-69
2022/09/08 03:30:06;;;;;;;2.03;1.50;;;20.30;99.90;;;;;;5024033;28;20168;-69
2022/09/08 03:32:33;;;;;;;3.63;1.57;;;20.40;99.90;;;;;;5008604;28;20418;-69
2022/09/08 03:35:00;;;;;;;1.40;1.10;;;20.30;99.90;;;;;;5016648;28;20981;-69
2022/09/08 03:37:26;;;;;;;2.30;1.40;;;20.20;99.90;;;;;;5016441;28;20426;-68
2022/09/08 03:39:52;;;;;;;3.07;1.73;;;20.20;99.90;;;;;;5023319;28;20414;-68
2022/09/08 03:42:18;;;;;;;1.93;1.10;;;20.20;99.90;;;;;;5036158;28;20773;-68
2022/09/08 03:44:43;;;;;;;1.37;1.20;;;20.10;99.90;;;;;;5036218;28;20171;-69
2022/09/08 03:47:09;;;;;;;1.70;1.17;;;20.10;99.90;;;;;;5036018;28;20710;-69
2022/09/08 03:49:35;;;;;;;1.40;1.20;;;20.10;99.90;;;;;;5035997;28;20175;-69
2022/09/08 03:52:01;;;;;;;2.10;1.30;;;20.00;99.90;;;;;;5036130;28;20257;-69
2022/09/08 03:57:11;;;;;;;1.50;1.40;;;20.00;99.90;;;;;;5035838;28;20197;-69
2022/09/08 03:59:37;;;;;;;1.50;1.10;;;20.00;99.90;;;;;;5035776;28;20402;-69
2022/09/08 04:02:03;;;;;;;2.57;1.17;;;19.90;99.90;;;;;;5036018;28;20167;-69
2022/09/08 04:04:30;;;;;;;1.20;1.10;;;20.00;99.90;;;;;;5035994;28;20417;-69
2022/09/08 04:06:56;;;;;;;1.40;1.30;;;19.90;99.90;;;;;;5035717;28;20464;-69
2022/09/08 04:09:22;;;;;;;1.57;1.00;;;19.90;99.90;;;;;;5034348;28;20813;-70
2022/09/08 04:11:48;;;;;;;2.40;1.43;;;19.90;99.90;;;;;;5035302;28;20406;-69
2022/09/08 04:14:14;;;;;;;2.33;1.37;;;20.00;99.90;;;;;;5035625;28;21072;-69
2022/09/08 04:16:40;;;;;;;1.50;1.40;;;19.50;99.90;;;;;;5035374;28;20187;-69
2022/09/08 04:19:06;;;;;;;1.73;1.30;;;19.50;99.90;;;;;;5035692;28;20406;-69
2022/09/08 04:21:32;;;;;;;1.70;1.07;;;19.60;99.90;;;;;;5035424;28;20640;-69
2022/09/08 04:23:59;;;;;;;1.30;1.20;;;19.60;99.90;;;;;;5035640;28;20541;-69
2022/09/08 04:26:26;;;;;;;1.30;1.00;;;19.50;99.90;;;;;;5035239;28;20210;-69
2022/09/08 04:28:52;;;;;;;1.53;0.90;;;19.40;99.90;;;;;;5035579;28;20781;-69
2022/09/08 04:31:18;;;;;;;1.93;1.00;;;19.40;99.90;;;;;;5034476;28;20402;-69
2022/09/08 04:33:43;;;;;;;1.13;0.93;;;19.60;99.90;;;;;;5035098;28;20229;-69
2022/09/08 04:36:22;;;;;;;1.67;1.50;;;19.70;99.90;;;;;;5035096;28;20833;-69
2022/09/08 04:38:48;;;;;;;1.30;1.00;;;19.70;99.90;;;;;;5035410;28;20258;-69
2022/09/08 04:41:16;;;;;;;1.53;1.23;;;19.70;99.90;;;;;;5034541;28;20851;-68
2022/09/08 04:43:43;;;;;;;1.10;1.00;;;19.70;99.90;;;;;;5035311;28;20414;-69
2022/09/08 04:46:12;;;;;;;1.60;1.03;;;19.50;99.90;;;;;;5035164;28;20529;-69
2022/09/08 04:48:39;;;;;;;1.97;1.30;;;19.50;99.90;;;;;;5034959;28;20464;-69
2022/09/08 04:51:05;;;;;;;2.73;1.33;;;19.50;99.90;;;;;;5035177;28;20408;-69
2022/09/08 04:53:33;;;;;;;1.80;1.17;;;19.50;99.90;;;;;;5034935;28;20493;-69
2022/09/08 04:56:00;;;;;;;1.30;1.13;;;19.50;99.90;;;;;;5034913;28;20218;-69
2022/09/08 04:58:29;;;;;;;1.23;1.00;;;19.60;99.90;;;;;;5034957;28;20394;-69
2022/09/08 05:00:54;;;;;;;1.73;1.20;;;19.60;99.90;;;;;;5035374;28;20401;-69
2022/09/08 05:03:20;;;;;;;1.33;1.23;;;19.70;99.90;;;;;;5022162;28;20405;-69
2022/09/08 05:05:45;;;;;;;2.30;1.10;;;19.60;99.90;;;;;;5014870;28;20235;-69
2022/09/08 05:08:11;;;;;;;1.87;1.30;;;19.60;99.90;;;;;;5015089;28;20528;-68
2022/09/08 05:10:36;;;;;;;2.17;1.90;;;19.50;99.90;;;;;;5025119;28;20306;-69
2022/09/08 05:13:02;;;;;;;1.80;1.20;;;19.40;99.90;;;;;;5034518;28;20547;-69
2022/09/08 05:15:28;;;;;;;1.03;0.93;;;19.50;99.90;;;;;;5034282;28;20785;-69
2022/09/08 05:17:54;;;;;;;3.53;1.30;;;19.40;99.90;;;;;;5034640;28;20163;-69
2022/09/08 05:20:20;;;;;;;1.80;1.40;;;19.50;99.90;;;;;;5034823;28;20436;-69
2022/09/08 05:22:46;;;;;;;1.03;0.93;;;19.50;99.90;;;;;;5034891;28;20163;-69
2022/09/08 05:25:12;;;;;;;1.93;1.40;;;19.60;99.90;;;;;;5033932;28;20234;-69
2022/09/08 05:27:37;;;;;;;1.90;1.20;;;19.40;99.90;;;;;;5034380;28;20171;-69
2022/09/08 05:30:04;;;;;;;1.90;1.43;;;19.50;99.90;;;;;;5034065;28;20195;-69
2022/09/08 05:32:29;;;;;;;1.70;1.27;;;19.50;99.90;;;;;;5034233;28;20209;-68
2022/09/08 05:34:55;;;;;;;2.23;1.50;;;19.40;99.90;;;;;;5033693;28;20474;-68
2022/09/08 05:37:20;;;;;;;3.50;1.10;;;19.40;99.90;;;;;;5033931;28;20640;-69
2022/09/08 05:39:46;;;;;;;2.00;1.03;;;19.40;99.90;;;;;;5033639;28;20625;-70
2022/09/08 05:42:12;;;;;;;2.90;1.13;;;19.30;99.90;;;;;;5034112;28;20553;-69
2022/09/08 05:44:39;;;;;;;1.83;1.30;;;19.40;99.90;;;;;;5033453;28;20446;-68
2022/09/08 05:47:04;;;;;;;1.70;1.50;;;19.40;99.90;;;;;;5033623;28;20484;-68
2022/09/08 05:49:31;;;;;;;2.30;1.47;;;19.10;99.90;;;;;;5033944;28;20406;-68
2022/09/08 05:51:57;;;;;;;1.60;1.30;;;19.20;99.90;;;;;;5033900;28;20164;-70
2022/09/08 05:54:24;;;;;;;2.17;1.60;;;19.20;99.90;;;;;;5033551;28;20477;-68
2022/09/08 05:56:49;;;;;;;2.97;1.43;;;19.30;99.90;;;;;;5033523;28;20414;-69
2022/09/08 05:59:15;;;;;;;1.77;1.40;;;19.50;99.90;;;;;;5033688;28;20409;-69
2022/09/08 06:01:41;;;;;;;1.57;0.90;;;19.40;99.90;;;;;;5033728;28;20163;-69
2022/09/08 06:04:06;;;;;;;2.70;1.10;;;19.30;99.90;;;;;;5033525;28;20178;-69
2022/09/08 06:06:33;;;;;;;2.00;1.20;;;19.30;99.90;;;;;;5033242;28;20210;-68
2022/09/08 06:09:00;;;;;;;1.37;1.00;;;19.40;99.90;;;;;;5033684;28;20190;-68
2022/09/08 06:11:26;;;;;;;1.00;0.83;;;19.40;99.90;;;;;;5032949;28;20409;-68
2022/09/08 06:13:53;;;;;;;1.27;1.10;;;19.20;99.90;;;;;;5033566;28;20433;-69
2022/09/08 06:16:19;;;;;;;2.13;1.20;;;19.20;99.90;;;;;;5033291;28;20433;-69
2022/09/08 06:18:46;;;;;;;2.20;1.07;;;19.10;99.90;;;;;;5033545;28;20496;-69
2022/09/08 06:21:21;;;;;;;1.17;0.93;;;19.00;99.90;;;;;;5031951;28;20445;-69
2022/09/08 06:23:51;;;;;;;2.03;1.23;;;19.10;99.90;;;;;;5006370;28;20439;-69
2022/09/08 06:26:55;;;;;;;1.40;0.90;;;19.30;99.90;;;;;;5012489;28;20493;-69
2022/09/08 06:29:32;;;;;;;2.73;1.20;;;19.20;99.90;;;;;;5012105;28;20411;-69
2022/09/08 06:32:02;;;;;;;2.70;1.30;;;19.30;99.90;;;;;;5013535;28;20506;-69
2022/09/08 06:34:43;;;;;;;2.83;1.43;;;18.90;99.90;;;;;;5013362;28;20877;-69
2022/09/08 06:37:17;;;;;;;1.57;1.10;;;19.00;99.90;;;;;;5013365;28;20477;-69
2022/09/08 06:39:53;;;;;;;1.40;1.00;;;19.10;99.90;;;;;;5016580;28;20394;-69
2022/09/08 06:42:20;;;;;;;1.20;0.90;;;19.20;99.90;;;;;;5033261;28;20424;-69
2022/09/08 06:44:51;;;;;;;3.17;1.00;;;19.40;99.90;;;;;;5033268;28;20409;-68
2022/09/08 06:47:21;;;;;;;1.40;1.00;;;19.30;99.90;;;;;;5033235;28;20810;-69
2022/09/08 06:49:50;;;;;;;2.10;0.90;;;19.50;99.90;;;;;;5033246;28;20406;-69
2022/09/08 06:52:36;;;;;;;1.93;1.03;;;19.50;99.90;;;;;;5032946;28;20496;-69
2022/09/08 06:55:14;;;;;;;2.90;1.03;;;19.40;99.90;;;;;;5033454;28;20429;-69
2022/09/08 06:58:07;;;;;;;1.30;0.80;;;19.40;99.90;;;;;;5037439;28;20413;-69
2022/09/08 07:00:53;;;;;;;1.53;1.10;;;19.30;99.90;;;;;;5028198;28;20425;-69
2022/09/08 07:03:37;;;;;;;1.80;1.00;;;19.40;99.90;;;;;;5018014;28;20745;-69
2022/09/08 07:06:07;;;;;;;2.90;1.10;;;19.50;99.90;;;;;;5016893;28;21018;-69
2022/09/08 07:08:42;;;;;;;1.47;1.03;;;19.60;99.90;;;;;;5017262;28;20728;-69
2022/09/08 07:11:28;;;;;;;3.90;1.23;;;19.70;99.90;;;;;;5031093;28;20818;-69
2022/09/08 07:14:26;;;;;;;2.77;1.20;;;19.70;99.90;;;;;;5036841;28;20390;-69
2022/09/08 07:17:05;;;;;;;1.73;1.00;;;19.60;99.90;;;;;;5036504;28;20949;-69
2022/09/08 07:19:49;;;;;;;2.53;1.00;;;19.60;99.90;;;;;;5036559;28;20378;-69
2022/09/08 07:22:31;;;;;;;2.70;0.80;;;19.40;99.90;;;;;;5036792;28;20859;-69
2022/09/08 07:25:14;;;;;;;1.20;0.90;;;19.50;99.90;;;;;;5036496;28;20428;-69
2022/09/08 07:27:41;;;;;;;1.10;0.70;;;19.80;99.90;;;;;;5036900;28;20382;-69
2022/09/08 07:30:13;;;;;;;1.43;0.87;;;19.90;99.90;;;;;;5036384;28;20419;-69
2022/09/08 07:32:39;;;;;;;1.23;0.83;;;20.00;99.90;;;;;;5036293;28;20398;-69
2022/09/08 07:35:12;;;;;;;0.90;0.60;;;20.00;99.90;;;;;;5036137;28;20446;-69
2022/09/08 07:37:45;;;;;;;0.90;0.83;;;20.20;99.90;;;;;;5035074;28;20505;-68
2022/09/08 07:40:16;;;;;;;1.93;0.80;;;20.30;99.90;;;;;;5034676;28;20418;-68
2022/09/08 07:43:03;;;;;;;1.43;0.90;;;20.40;99.90;;;;;;5036550;28;20386;-69
2022/09/08 07:45:54;;;;;;;1.73;0.90;;;20.30;99.90;;;;;;5035912;28;20466;-68
2022/09/08 07:48:23;;;;;;;1.30;1.00;;;20.40;99.90;;;;;;5036412;28;20874;-69
2022/09/08 07:51:14;;;;;;;1.10;0.70;;;20.50;99.90;;;;;;5035887;28;20429;-68
2022/09/08 07:54:15;;;;;;;1.47;0.90;;;20.60;99.90;;;;;;5035333;28;20892;-68
2022/09/08 07:56:45;;;;;;;0.90;0.60;;;20.40;99.90;;;;;;4994771;28;20561;-68
2022/09/08 07:59:19;;;;;;;1.40;1.10;;;20.50;99.90;;;;;;5028623;28;20418;-71
2022/09/08 08:02:23;;;;;;;1.57;0.90;;;20.40;99.90;;;;;;5036157;28;20402;-69
2022/09/08 08:05:15;;;;;;;1.00;0.80;;;20.30;99.90;;;;;;5035615;28;20402;-69
2022/09/08 08:08:11;;;;;;;2.27;0.83;;;20.40;99.90;;;;;;5035553;28;20398;-70
2022/09/08 08:10:46;;;;;;;1.30;1.10;;;20.00;99.90;;;;;;5036267;28;20456;-69
2022/09/08 08:13:39;;;;;;;1.57;1.00;;;19.80;99.90;;;;;;5035902;28;20474;-69
2022/09/08 08:16:09;;;;;;;1.40;0.90;;;19.80;99.90;;;;;;5035782;28;20434;-69
2022/09/08 08:18:42;;;;;;;1.50;0.90;;;19.90;99.90;;;;;;5035758;28;20379;-69
2022/09/08 08:21:15;;;;;;;1.30;0.80;;;19.80;99.90;;;;;;5034035;28;20449;-69
2022/09/08 08:23:57;;;;;;;1.10;0.80;;;19.80;99.90;;;;;;5035513;28;20489;-69
2022/09/08 08:26:29;;;;;;;1.90;1.20;;;19.70;99.90;;;;;;5035222;28;20426;-69
2022/09/08 08:29:25;;;;;;;1.03;0.70;;;19.90;99.90;;;;;;5035049;28;20394;-69
2022/09/08 08:31:57;;;;;;;1.37;0.80;;;19.90;99.90;;;;;;5035603;28;20390;-68
2022/09/08 08:34:31;;;;;;;1.03;0.90;;;19.80;99.90;;;;;;5035478;28;20450;-68
2022/09/08 08:37:01;;;;;;;1.50;1.00;;;20.00;99.90;;;;;;5035315;28;20454;-69
2022/09/08 08:39:28;;;;;;;1.23;1.00;;;20.00;99.90;;;;;;5035069;28;20449;-70
2022/09/08 08:42:12;;;;;;;1.43;0.90;;;20.20;99.90;;;;;;5034825;28;20409;-69
2022/09/08 08:44:47;;;;;;;1.30;1.20;;;20.30;99.90;;;;;;5035444;28;20383;-69
2022/09/08 08:47:29;;;;;;;0.90;0.67;;;20.50;99.90;;;;;;5035017;28;20774;-69
2022/09/08 08:50:21;;;;;;;2.40;0.90;;;20.50;99.90;;;;;;5035366;28;20401;-69
2022/09/08 08:53:20;;;;;;;2.07;0.90;;;20.50;99.90;;;;;;5035012;28;20398;-69
2022/09/08 08:56:13;;;;;;;1.30;0.80;;;20.60;99.90;;;;;;5034727;28;20446;-69
2022/09/08 08:59:04;;;;;;;1.00;0.80;;;20.90;99.90;;;;;;5034754;28;20871;-69
2022/09/08 09:02:02;;;;;;;3.13;1.00;;;21.30;99.90;;;;;;5035476;28;20428;-69
2022/09/08 09:05:05;;;;;;;2.03;1.00;;;21.60;99.90;;;;;;5034903;28;20393;-69
2022/09/08 09:07:31;;;;;;;2.13;1.03;;;21.80;99.90;;;;;;5034817;28;20413;-69
2022/09/08 09:10:17;;;;;;;1.60;1.07;;;21.90;99.90;;;;;;5049101;22;20482;-70
2022/09/08 09:13:03;;;;;;;1.20;0.90;;;21.70;99.90;;;;;;5013697;28;20180;-69
2022/09/08 09:15:44;;;;;;;1.43;0.97;;;22.10;99.90;;;;;;5031531;28;20508;-70
2022/09/08 09:18:48;;;;;;;2.80;1.00;;;22.40;99.90;;;;;;5025018;28;20421;-69
2022/09/08 09:21:19;;;;;;;1.93;0.90;;;22.30;99.90;;;;;;5011943;28;20421;-70
2022/09/08 09:24:01;;;;;;;1.37;0.90;;;22.10;99.90;;;;;;5011937;28;20498;-69
2022/09/08 09:26:31;;;;;;;1.37;0.90;;;21.70;99.90;;;;;;5024922;28;20502;-69
2022/09/08 09:29:26;;;;;;;1.90;0.90;;;21.50;99.90;;;;;;5033696;28;20945;-69
2022/09/08 09:32:16;;;;;;;1.63;1.53;;;21.20;99.90;;;;;;5033905;28;20431;-69
2022/09/08 09:34:44;;;;;;;1.37;0.90;;;21.20;99.90;;;;;;5033683;28;20560;-70
2022/09/08 09:37:24;;;;;;;2.50;0.90;;;20.90;99.90;;;;;;5033460;28;20907;-68
2022/09/08 09:40:02;;;;;;;1.40;1.00;;;20.90;99.90;;;;;;5033936;28;20425;-67
2022/09/08 09:43:21;;;;;;;1.20;0.83;;;20.90;99.90;;;;;;5013941;28;20379;-69
2022/09/08 09:46:05;;;;;;;2.50;1.20;;;20.90;99.90;;;;;;4959328;28;20464;-70
2022/09/08 09:48:46;;;;;;;1.27;0.70;;;21.30;99.90;;;;;;5033448;28;20444;-68
2022/09/08 09:51:30;;;;;;;1.00;0.90;;;21.60;99.90;;;;;;5033920;28;20382;-70
2022/09/08 09:54:09;;;;;;;1.90;1.10;;;21.90;99.90;;;;;;5032751;28;20421;-69
2022/09/08 09:56:46;;;;;;;1.27;0.93;;;22.30;99.90;;;;;;5032674;28;20397;-70
2022/09/08 09:59:40;;;;;;;1.03;0.80;;;22.30;99.90;;;;;;5033136;28;20417;-69
2022/09/08 10:02:23;;;;;;;1.67;0.80;;;22.30;99.90;;;;;;5032983;28;20476;-70
2022/09/08 10:05:24;;;;;;;1.80;1.10;;;22.20;99.90;;;;;;5033020;28;20401;-69
2022/09/08 10:08:08;;;;;;;1.17;0.90;;;22.20;99.90;;;;;;5032437;28;20749;-69
2022/09/08 10:10:51;;;;;;;1.77;0.97;;;22.30;99.90;;;;;;5031786;28;20774;-69
2022/09/08 10:13:47;;;;;;;1.80;0.70;;;22.40;99.90;;;;;;5032993;28;20378;-69
2022/09/08 10:16:23;;;;;;;0.97;0.70;;;22.80;99.90;;;;;;5032626;28;20398;-68
2022/09/08 10:19:07;;;;;;;1.23;0.90;;;22.80;99.90;;;;;;5032941;28;20424;-69
2022/09/08 10:22:01;;;;;;;1.00;0.90;;;23.20;99.90;;;;;;5032713;28;20378;-68
2022/09/08 10:24:34;;;;;;;2.33;0.97;;;23.30;99.90;;;;;;5032180;28;20389;-68
2022/09/08 10:27:38;;;;;;;1.30;1.00;;;23.30;99.90;;;;;;5032092;28;20375;-70
2022/09/08 10:30:34;;;;;;;1.80;0.93;;;23.10;99.90;;;;;;5032164;28;20887;-68
2022/09/08 10:33:27;;;;;;;5.40;1.10;;;23.00;99.90;;;;;;5032940;28;20383;-69
2022/09/08 10:36:10;;;;;;;1.57;0.80;;;22.90;99.90;;;;;;5033247;28;20818;-69
2022/09/08 10:38:55;;;;;;;2.80;1.50;;;22.70;99.90;;;;;;5033199;28;20429;-68
2022/09/08 10:42:01;;;;;;;3.47;1.10;;;22.70;99.90;;;;;;5032856;28;20447;-69
2022/09/08 10:44:50;;;;;;;2.30;0.83;;;22.80;99.90;;;;;;5032168;28;20805;-69
2022/09/08 10:47:34;;;;;;;4.57;1.10;;;23.00;99.90;;;;;;5033152;28;20493;-69
2022/09/08 10:50:25;;;;;;;1.23;0.80;;;23.10;99.90;;;;;;5033169;28;20422;-68
2022/09/08 10:53:02;;;;;;;1.43;0.90;;;23.00;99.90;;;;;;5033232;28;20390;-69
2022/09/08 10:55:49;;;;;;;4.97;1.37;;;23.00;99.90;;;;;;5033229;28;20906;-69
2022/09/08 10:58:39;;;;;;;1.03;0.87;;;23.10;99.90;;;;;;5033176;28;20853;-70
2022/09/08 11:01:33;;;;;;;1.80;1.00;;;22.80;99.90;;;;;;5032500;28;20524;-69
2022/09/08 11:04:23;;;;;;;2.10;1.10;;;22.60;99.90;;;;;;5031860;28;20410;-69
2022/09/08 11:07:14;;;;;;;1.20;0.90;;;22.60;99.90;;;;;;5033121;28;20385;-69
2022/09/08 11:09:42;;;;;;;1.40;0.80;;;22.30;99.90;;;;;;5032147;28;20445;-69
2022/09/08 11:12:10;;;;;;;2.00;1.40;;;22.20;99.90;;;;;;5032086;28;20825;-69
2022/09/08 11:15:00;;;;;;;1.37;0.80;;;22.30;99.90;;;;;;5032058;28;20946;-69
2022/09/08 11:17:28;;;;;;;2.87;0.90;;;22.50;99.90;;;;;;5032270;28;20397;-69
2022/09/08 11:20:02;;;;;;;1.83;1.00;;;22.60;99.90;;;;;;5032051;28;20472;-69
2022/09/08 11:22:44;;;;;;;1.80;0.97;;;22.60;99.90;;;;;;5031964;28;20396;-69
2022/09/08 11:25:39;;;;;;;1.57;1.00;;;22.70;99.90;;;;;;5033437;28;20477;-69
2022/09/08 11:28:13;;;;;;;3.43;0.90;;;22.80;99.90;;;;;;5031912;28;20883;-69
2022/09/08 11:31:00;;;;;;;2.00;0.70;;;22.70;99.90;;;;;;5031771;28;20476;-70
2022/09/08 11:33:53;;;;;;;1.30;0.87;;;23.20;99.90;;;;;;5031998;28;20398;-70
2022/09/08 11:36:36;;;;;;;6.23;1.00;;;24.40;99.90;;;;;;5031617;28;20418;-70
2022/09/08 11:39:05;;;;;;;2.03;0.80;;;24.60;99.90;;;;;;5031737;28;20431;-70
2022/09/08 11:41:57;;;;;;;1.50;0.73;;;25.60;99.90;;;;;;5033150;28;20410;-68
2022/09/08 11:44:37;;;;;;;1.53;0.80;;;26.20;99.90;;;;;;5037971;28;20395;-70
2022/09/08 11:47:27;;;;;;;1.40;0.90;;;25.70;99.90;;;;;;5035178;28;20394;-69
2022/09/08 11:50:18;;;;;;;2.70;1.30;;;24.70;99.90;;;;;;5035141;28;20487;-70
2022/09/08 11:53:15;;;;;;;3.60;1.00;;;23.90;99.90;;;;;;5035208;28;20390;-69
2022/09/08 11:56:05;;;;;;;2.73;1.10;;;23.80;99.90;;;;;;5035088;28;20459;-69
2022/09/08 11:58:50;;;;;;;2.33;0.90;;;23.20;99.90;;;;;;5036045;28;20425;-68
2022/09/08 12:01:25;;;;;;;2.30;0.90;;;23.00;99.90;;;;;;5035977;28;20382;-69
2022/09/08 12:03:59;;;;;;;4.70;1.10;;;23.00;99.90;;;;;;5051699;28;20398;-68
2022/09/08 12:07:02;;;;;;;4.70;1.27;;;23.30;99.90;;;;;;5035624;28;20426;-69
2022/09/08 12:09:45;;;;;;;1.67;0.90;;;23.60;99.90;;;;;;5035400;28;20461;-69
2022/09/08 12:12:25;;;;;;;2.43;1.20;;;23.30;99.90;;;;;;5048939;28;20536;-69
2022/09/08 12:14:53;;;;;;;1.60;1.20;;;23.30;99.90;;;;;;5034808;28;20438;-69
2022/09/08 12:17:34;;;;;;;1.73;1.20;;;23.30;99.90;;;;;;5034798;28;20489;-69
2022/09/08 12:20:15;;;;;;;1.33;0.90;;;23.20;99.90;;;;;;5034191;28;20414;-68
2022/09/08 12:23:03;;;;;;;1.57;0.87;;;23.30;99.90;;;;;;5034882;28;20407;-69
2022/09/08 12:25:38;;;;;;;1.00;0.73;;;23.40;99.90;;;;;;5033551;28;20407;-69
2022/09/08 12:28:20;;;;;;;1.67;0.77;;;23.30;99.90;;;;;;5034781;28;20906;-70
2022/09/08 12:31:15;;;;;;;2.40;1.00;;;23.30;99.90;;;;;;5035153;28;20383;-70
2022/09/08 12:34:26;;;;;;;3.83;1.10;;;23.20;99.90;;;;;;5034826;28;20391;-69
2022/09/08 12:36:59;;;;;;;1.50;1.40;;;23.30;99.90;;;;;;5049744;28;20422;-71
2022/09/08 12:39:37;;;;;;;1.83;0.90;;;23.60;99.90;;;;;;5022789;28;20465;-70
2022/09/08 12:42:28;;;;;;;4.93;1.20;;;23.70;99.90;;;;;;5028809;28;20477;-70
2022/09/08 12:45:03;;;;;;;1.30;0.70;;;23.70;99.90;;;;;;5034987;28;20477;-69
2022/09/08 12:47:47;;;;;;;1.40;0.90;;;24.20;99.90;;;;;;5035124;28;20409;-69
2022/09/08 12:50:31;;;;;;;1.07;0.73;;;25.60;99.90;;;;;;5050086;28;20430;-70
2022/09/08 12:53:21;;;;;;;2.03;0.90;;;28.00;96.80;;;;;;5033940;28;20448;-70
2022/09/08 12:56:19;;;;;;;2.20;0.80;;;29.30;92.70;;;;;;5041304;28;20457;-69
2022/09/08 12:59:00;;;;;;;1.67;0.80;;;30.80;90.40;;;;;;5034218;28;20476;-71
2022/09/08 13:01:44;;;;;;;3.10;1.10;;;31.50;82.20;;;;;;5034973;28;20387;-70
2022/09/08 13:04:29;;;;;;;2.03;0.90;;;32.20;76.30;;;;;;5050005;28;20442;-71
2022/09/08 13:07:18;;;;;;;1.27;0.70;;;32.00;76.90;;;;;;5034889;28;20386;-71
2022/09/08 13:10:06;;;;;;;1.70;0.80;;;31.10;78.10;;;;;;5033929;28;20946;-70
2022/09/08 13:12:47;;;;;;;3.60;1.10;;;29.50;80.40;;;;;;5033395;28;20516;-70
2022/09/08 13:15:16;;;;;;;2.00;0.73;;;28.70;82.50;;;;;;5032504;28;20938;-70
2022/09/08 13:18:05;;;;;;;3.90;1.40;;;27.60;84.30;;;;;;5034475;28;20399;-70
2022/09/08 13:21:12;;;;;;;2.23;1.03;;;27.50;85.80;;;;;;5034630;28;20441;-70
2022/09/08 13:23:47;;;;;;;1.40;0.70;;;27.20;88.60;;;;;;5016096;28;20422;-71
2022/09/08 13:26:29;;;;;;;4.30;0.93;;;26.90;86.70;;;;;;5033723;28;20473;-70
2022/09/08 13:29:14;;;;;;;1.83;1.20;;;26.40;88.00;;;;;;5034378;28;20449;-71
2022/09/08 13:32:08;;;;;;;2.00;0.80;;;26.20;89.10;;;;;;5033851;28;20409;-71
2022/09/08 13:34:40;;;;;;;2.57;1.00;;;25.60;89.60;;;;;;5032616;28;20433;-71
2022/09/08 13:37:38;;;;;;;2.70;1.27;;;25.60;91.20;;;;;;5032564;28;20406;-71
2022/09/08 13:40:37;;;;;;;1.57;0.80;;;25.60;91.90;;;;;;5034186;28;20418;-71